sensor_id;sensor_type;location;lat;lon;timestamp;temperature;humidity
4097;DHT22;2062;50.694;7.246;2022-12-07T00:01:51;23.40;28.40
4097;DHT22;2062;50.694;7.246;2022-12-07T00:04:19;23.40;28.40
4097;DHT22;2062;50.694;7.246;2022-12-07T00:06:50;23.40;28.40
4097;DHT22;2062;50.694;7.246;2022-12-07T00:09:19;23.50;28.50
4097;DHT22;2062;50.694;7.246;2022-12-07T00:11:49;23.40;28.30
4097;DHT22;2062;50.694;7.246;2022-12-07T00:14:17;23.40;28.40
4097;DHT22;2062;50.694;7.246;2022-12-07T00:16:44;23.40;28.30
4097;DHT22;2062;50.694;7.246;2022-12-07T00:19:12;23.50;28.40
4097;DHT22;2062;50.694;7.246;2022-12-07T00:21:39;23.40;28.30
4097;DHT22;2062;50.694;7.246;2022-12-07T00:24:06;23.40;28.30
4097;DHT22;2062;50.694;7.246;2022-12-07T00:26:36;23.40;28.30
4097;DHT22;2062;50.694;7.246;2022-12-07T00:29:05;23.40;28.30
4097;DHT22;2062;50.694;7.246;2022-12-07T00:31:34;23.40;28.30
4097;DHT22;2062;50.694;7.246;2022-12-07T00:34:04;23.40;28.30
4097;DHT22;2062;50.694;7.246;2022-12-07T00:36:31;23.40;28.30
4097;DHT22;2062;50.694;7.246;2022-12-07T00:38:59;23.40;28.30
4097;DHT22;2062;50.694;7.246;2022-12-07T00:41:27;23.40;28.30
4097;DHT22;2062;50.694;7.246;2022-12-07T00:43:56;23.40;28.30
4097;DHT22;2062;50.694;7.246;2022-12-07T00:46:24;23.40;28.30
4097;DHT22;2062;50.694;7.246;2022-12-07T00:48:52;23.40;28.30
4097;DHT22;2062;50.694;7.246;2022-12-07T00:51:20;23.50;28.30
4097;DHT22;2062;50.694;7.246;2022-12-07T00:53:47;23.40;28.30
4097;DHT22;2062;50.694;7.246;2022-12-07T00:56:15;23.40;28.30
4097;DHT22;2062;50.694;7.246;2022-12-07T00:58:43;23.40;28.20
4097;DHT22;2062;50.694;7.246;2022-12-07T01:01:11;23.40;28.20
4097;DHT22;2062;50.694;7.246;2022-12-07T01:03:38;23.40;28.20
4097;DHT22;2062;50.694;7.246;2022-12-07T01:06:05;23.40;28.20
4097;DHT22;2062;50.694;7.246;2022-12-07T01:08:32;23.40;28.20
4097;DHT22;2062;50.694;7.246;2022-12-07T01:11:00;23.40;28.20
4097;DHT22;2062;50.694;7.246;2022-12-07T01:13:27;23.40;28.20
4097;DHT22;2062;50.694;7.246;2022-12-07T01:15:56;23.40;28.10
4097;DHT22;2062;50.694;7.246;2022-12-07T01:18:26;23.40;28.20
4097;DHT22;2062;50.694;7.246;2022-12-07T01:21:01;23.40;28.10
4097;DHT22;2062;50.694;7.246;2022-12-07T01:23:28;23.40;28.10
4097;DHT22;2062;50.694;7.246;2022-12-07T01:25:56;23.40;28.10
4097;DHT22;2062;50.694;7.246;2022-12-07T01:28:23;23.40;28.10
4097;DHT22;2062;50.694;7.246;2022-12-07T01:30:57;23.40;28.10
4097;DHT22;2062;50.694;7.246;2022-12-07T01:33:26;23.40;28.10
4097;DHT22;2062;50.694;7.246;2022-12-07T01:35:54;23.40;28.10
4097;DHT22;2062;50.694;7.246;2022-12-07T01:38:20;23.40;28.10
4097;DHT22;2062;50.694;7.246;2022-12-07T01:40:54;23.40;28.00
4097;DHT22;2062;50.694;7.246;2022-12-07T01:43:21;23.40;28.00
4097;DHT22;2062;50.694;7.246;2022-12-07T01:45:49;23.40;28.00
4097;DHT22;2062;50.694;7.246;2022-12-07T01:48:17;23.40;28.00
4097;DHT22;2062;50.694;7.246;2022-12-07T01:50:48;23.40;28.00
4097;DHT22;2062;50.694;7.246;2022-12-07T01:53:16;23.40;28.00
4097;DHT22;2062;50.694;7.246;2022-12-07T01:55:46;23.40;28.00
4097;DHT22;2062;50.694;7.246;2022-12-07T01:58:14;23.40;28.00
4097;DHT22;2062;50.694;7.246;2022-12-07T02:00:42;23.40;28.00
4097;DHT22;2062;50.694;7.246;2022-12-07T02:03:13;23.40;28.00
4097;DHT22;2062;50.694;7.246;2022-12-07T02:05:41;23.50;28.10
4097;DHT22;2062;50.694;7.246;2022-12-07T02:08:10;23.40;28.00
4097;DHT22;2062;50.694;7.246;2022-12-07T02:10:38;23.40;28.00
4097;DHT22;2062;50.694;7.246;2022-12-07T02:13:08;23.40;28.00
4097;DHT22;2062;50.694;7.246;2022-12-07T02:15:45;23.40;27.90
4097;DHT22;2062;50.694;7.246;2022-12-07T02:18:17;23.40;28.00
4097;DHT22;2062;50.694;7.246;2022-12-07T02:20:53;23.40;28.00
4097;DHT22;2062;50.694;7.246;2022-12-07T02:23:41;23.40;28.00
4097;DHT22;2062;50.694;7.246;2022-12-07T02:26:39;23.40;27.90
4097;DHT22;2062;50.694;7.246;2022-12-07T02:29:17;23.40;27.90
4097;DHT22;2062;50.694;7.246;2022-12-07T02:31:53;23.40;27.90
4097;DHT22;2062;50.694;7.246;2022-12-07T02:34:29;23.40;27.90
4097;DHT22;2062;50.694;7.246;2022-12-07T02:37:02;23.40;27.90
4097;DHT22;2062;50.694;7.246;2022-12-07T02:39:33;23.40;27.90
4097;DHT22;2062;50.694;7.246;2022-12-07T02:42:07;23.40;27.90
4097;DHT22;2062;50.694;7.246;2022-12-07T02:44:38;23.40;27.90
4097;DHT22;2062;50.694;7.246;2022-12-07T02:47:08;23.40;27.90
4097;DHT22;2062;50.694;7.246;2022-12-07T02:49:36;23.40;27.90
4097;DHT22;2062;50.694;7.246;2022-12-07T02:52:04;23.40;27.90
4097;DHT22;2062;50.694;7.246;2022-12-07T02:54:31;23.50;28.00
4097;DHT22;2062;50.694;7.246;2022-12-07T02:57:05;23.40;27.90
4097;DHT22;2062;50.694;7.246;2022-12-07T02:59:48;23.40;27.90
4097;DHT22;2062;50.694;7.246;2022-12-07T03:02:27;23.40;27.80
4097;DHT22;2062;50.694;7.246;2022-12-07T03:05:09;23.40;27.90
4097;DHT22;2062;50.694;7.246;2022-12-07T03:07:45;23.40;27.90
4097;DHT22;2062;50.694;7.246;2022-12-07T03:10:21;23.40;27.90
4097;DHT22;2062;50.694;7.246;2022-12-07T03:12:57;23.40;27.90
4097;DHT22;2062;50.694;7.246;2022-12-07T03:15:32;23.40;27.80
4097;DHT22;2062;50.694;7.246;2022-12-07T03:18:01;23.40;27.80
4097;DHT22;2062;50.694;7.246;2022-12-07T03:20:30;23.40;27.90
4097;DHT22;2062;50.694;7.246;2022-12-07T03:22:59;23.40;27.80
4097;DHT22;2062;50.694;7.246;2022-12-07T03:25:26;23.40;27.80
4097;DHT22;2062;50.694;7.246;2022-12-07T03:27:56;23.40;27.80
4097;DHT22;2062;50.694;7.246;2022-12-07T03:30:27;23.40;27.80
4097;DHT22;2062;50.694;7.246;2022-12-07T03:33:00;23.40;27.80
4097;DHT22;2062;50.694;7.246;2022-12-07T03:35:32;23.40;27.80
4097;DHT22;2062;50.694;7.246;2022-12-07T03:38:08;23.40;27.80
4097;DHT22;2062;50.694;7.246;2022-12-07T03:40:40;23.40;27.80
4097;DHT22;2062;50.694;7.246;2022-12-07T03:43:10;23.40;27.80
4097;DHT22;2062;50.694;7.246;2022-12-07T03:45:39;23.40;27.80
4097;DHT22;2062;50.694;7.246;2022-12-07T03:48:17;23.40;27.80
4097;DHT22;2062;50.694;7.246;2022-12-07T03:50:52;23.40;27.80
4097;DHT22;2062;50.694;7.246;2022-12-07T03:53:23;23.40;27.80
4097;DHT22;2062;50.694;7.246;2022-12-07T03:55:52;23.40;27.70
4097;DHT22;2062;50.694;7.246;2022-12-07T03:58:21;23.40;27.80
4097;DHT22;2062;50.694;7.246;2022-12-07T04:00:49;23.40;27.70
4097;DHT22;2062;50.694;7.246;2022-12-07T04:03:18;23.40;27.70
4097;DHT22;2062;50.694;7.246;2022-12-07T04:05:44;23.40;27.70
4097;DHT22;2062;50.694;7.246;2022-12-07T04:08:11;23.40;27.80
4097;DHT22;2062;50.694;7.246;2022-12-07T04:10:38;23.40;27.80
4097;DHT22;2062;50.694;7.246;2022-12-07T04:13:05;23.50;27.80
4097;DHT22;2062;50.694;7.246;2022-12-07T04:15:32;23.40;27.70
4097;DHT22;2062;50.694;7.246;2022-12-07T04:17:58;23.50;27.80
4097;DHT22;2062;50.694;7.246;2022-12-07T04:20:26;23.40;27.70
4097;DHT22;2062;50.694;7.246;2022-12-07T04:22:53;23.40;27.80
4097;DHT22;2062;50.694;7.246;2022-12-07T04:25:20;23.40;27.70
4097;DHT22;2062;50.694;7.246;2022-12-07T04:27:47;23.40;27.70
4097;DHT22;2062;50.694;7.246;2022-12-07T04:30:14;23.40;27.70
4097;DHT22;2062;50.694;7.246;2022-12-07T04:32:40;23.40;27.70
4097;DHT22;2062;50.694;7.246;2022-12-07T04:35:08;23.40;27.70
4097;DHT22;2062;50.694;7.246;2022-12-07T04:37:36;23.40;27.70
4097;DHT22;2062;50.694;7.246;2022-12-07T04:40:06;23.40;27.70
4097;DHT22;2062;50.694;7.246;2022-12-07T04:42:33;23.40;27.70
4097;DHT22;2062;50.694;7.246;2022-12-07T04:45:00;23.40;27.70
4097;DHT22;2062;50.694;7.246;2022-12-07T04:47:26;23.40;27.70
4097;DHT22;2062;50.694;7.246;2022-12-07T04:49:53;23.40;27.70
4097;DHT22;2062;50.694;7.246;2022-12-07T04:52:20;23.40;27.70
4097;DHT22;2062;50.694;7.246;2022-12-07T04:54:48;23.40;27.70
4097;DHT22;2062;50.694;7.246;2022-12-07T04:57:15;23.40;27.70
4097;DHT22;2062;50.694;7.246;2022-12-07T04:59:42;23.40;27.60
4097;DHT22;2062;50.694;7.246;2022-12-07T05:02:08;23.40;27.70
4097;DHT22;2062;50.694;7.246;2022-12-07T05:04:35;23.40;27.80
4097;DHT22;2062;50.694;7.246;2022-12-07T05:07:02;23.50;27.90
4097;DHT22;2062;50.694;7.246;2022-12-07T05:09:28;23.50;27.90
4097;DHT22;2062;50.694;7.246;2022-12-07T05:11:56;23.40;27.80
4097;DHT22;2062;50.694;7.246;2022-12-07T05:14:24;23.40;27.80
4097;DHT22;2062;50.694;7.246;2022-12-07T05:16:51;23.50;27.90
4097;DHT22;2062;50.694;7.246;2022-12-07T05:19:19;23.50;28.10
4097;DHT22;2062;50.694;7.246;2022-12-07T05:21:46;23.50;28.20
4097;DHT22;2062;50.694;7.246;2022-12-07T05:24:15;23.50;28.40
4097;DHT22;2062;50.694;7.246;2022-12-07T05:26:42;23.50;28.50
4097;DHT22;2062;50.694;7.246;2022-12-07T05:29:12;23.50;28.40
4097;DHT22;2062;50.694;7.246;2022-12-07T05:31:39;23.50;28.50
4097;DHT22;2062;50.694;7.246;2022-12-07T05:34:06;23.50;28.50
4097;DHT22;2062;50.694;7.246;2022-12-07T05:36:33;23.50;28.70
4097;DHT22;2062;50.694;7.246;2022-12-07T05:39:00;23.60;28.60
4097;DHT22;2062;50.694;7.246;2022-12-07T05:41:27;23.50;28.60
4097;DHT22;2062;50.694;7.246;2022-12-07T05:44:13;23.50;28.70
4097;DHT22;2062;50.694;7.246;2022-12-07T05:46:40;23.50;28.70
4097;DHT22;2062;50.694;7.246;2022-12-07T05:49:07;23.50;28.70
4097;DHT22;2062;50.694;7.246;2022-12-07T05:51:33;23.50;28.70
4097;DHT22;2062;50.694;7.246;2022-12-07T05:54:00;23.50;29.40
4097;DHT22;2062;50.694;7.246;2022-12-07T05:56:27;23.50;28.80
4097;DHT22;2062;50.694;7.246;2022-12-07T05:58:54;23.50;28.80
4097;DHT22;2062;50.694;7.246;2022-12-07T06:01:40;23.50;28.80
4097;DHT22;2062;50.694;7.246;2022-12-07T06:04:07;23.50;28.80
4097;DHT22;2062;50.694;7.246;2022-12-07T06:06:34;23.40;28.80
4097;DHT22;2062;50.694;7.246;2022-12-07T06:09:00;23.50;28.90
4097;DHT22;2062;50.694;7.246;2022-12-07T06:11:27;23.50;28.90
4097;DHT22;2062;50.694;7.246;2022-12-07T06:14:12;23.50;28.90
4097;DHT22;2062;50.694;7.246;2022-12-07T06:16:40;23.50;28.80
4097;DHT22;2062;50.694;7.246;2022-12-07T06:19:07;23.50;28.80
4097;DHT22;2062;50.694;7.246;2022-12-07T06:21:34;23.50;28.80
4097;DHT22;2062;50.694;7.246;2022-12-07T06:24:01;23.50;28.80
4097;DHT22;2062;50.694;7.246;2022-12-07T06:26:28;23.50;28.90
4097;DHT22;2062;50.694;7.246;2022-12-07T06:28:55;23.50;28.90
4097;DHT22;2062;50.694;7.246;2022-12-07T06:31:21;23.50;28.90
4097;DHT22;2062;50.694;7.246;2022-12-07T06:33:50;23.50;28.90
4097;DHT22;2062;50.694;7.246;2022-12-07T06:36:16;23.50;29.60
4097;DHT22;2062;50.694;7.246;2022-12-07T06:38:43;23.50;29.00
4097;DHT22;2062;50.694;7.246;2022-12-07T06:41:10;23.50;29.00
4097;DHT22;2062;50.694;7.246;2022-12-07T06:43:37;23.50;29.00
4097;DHT22;2062;50.694;7.246;2022-12-07T06:46:04;23.50;29.00
4097;DHT22;2062;50.694;7.246;2022-12-07T06:48:30;23.50;29.00
4097;DHT22;2062;50.694;7.246;2022-12-07T06:50:58;23.50;29.00
4097;DHT22;2062;50.694;7.246;2022-12-07T06:53:25;23.50;29.00
4097;DHT22;2062;50.694;7.246;2022-12-07T06:55:52;23.50;29.00
4097;DHT22;2062;50.694;7.246;2022-12-07T06:58:19;23.50;29.00
4097;DHT22;2062;50.694;7.246;2022-12-07T07:00:47;23.50;28.90
4097;DHT22;2062;50.694;7.246;2022-12-07T07:03:14;23.50;29.00
4097;DHT22;2062;50.694;7.246;2022-12-07T07:05:41;23.50;29.00
4097;DHT22;2062;50.694;7.246;2022-12-07T07:08:10;23.50;29.00
4097;DHT22;2062;50.694;7.246;2022-12-07T07:10:37;23.50;29.00
4097;DHT22;2062;50.694;7.246;2022-12-07T07:13:04;23.40;28.90
4097;DHT22;2062;50.694;7.246;2022-12-07T07:15:31;23.50;29.00
4097;DHT22;2062;50.694;7.246;2022-12-07T07:17:58;23.40;28.90
4097;DHT22;2062;50.694;7.246;2022-12-07T07:20:25;23.50;29.00
4097;DHT22;2062;50.694;7.246;2022-12-07T07:22:54;23.50;29.00
4097;DHT22;2062;50.694;7.246;2022-12-07T07:25:22;23.40;28.90
4097;DHT22;2062;50.694;7.246;2022-12-07T07:27:49;23.40;28.90
4097;DHT22;2062;50.694;7.246;2022-12-07T07:30:16;23.40;28.90
4097;DHT22;2062;50.694;7.246;2022-12-07T07:32:42;23.40;28.90
4097;DHT22;2062;50.694;7.246;2022-12-07T07:35:09;23.40;28.90
4097;DHT22;2062;50.694;7.246;2022-12-07T07:37:36;23.40;28.90
4097;DHT22;2062;50.694;7.246;2022-12-07T07:40:03;23.40;28.90
4097;DHT22;2062;50.694;7.246;2022-12-07T07:42:32;23.40;28.90
4097;DHT22;2062;50.694;7.246;2022-12-07T07:44:59;23.40;28.90
4097;DHT22;2062;50.694;7.246;2022-12-07T07:47:25;23.40;28.90
4097;DHT22;2062;50.694;7.246;2022-12-07T07:49:52;23.40;28.90
4097;DHT22;2062;50.694;7.246;2022-12-07T07:52:19;23.40;29.00
4097;DHT22;2062;50.694;7.246;2022-12-07T07:54:46;23.40;28.90
4097;DHT22;2062;50.694;7.246;2022-12-07T07:57:12;23.40;29.00
4097;DHT22;2062;50.694;7.246;2022-12-07T07:59:40;23.40;28.90
4097;DHT22;2062;50.694;7.246;2022-12-07T08:02:09;23.40;28.90
4097;DHT22;2062;50.694;7.246;2022-12-07T08:04:39;23.40;28.90
4097;DHT22;2062;50.694;7.246;2022-12-07T08:07:06;23.40;29.00
4097;DHT22;2062;50.694;7.246;2022-12-07T08:09:33;23.40;28.90
4097;DHT22;2062;50.694;7.246;2022-12-07T08:12:00;23.40;28.90
4097;DHT22;2062;50.694;7.246;2022-12-07T08:14:27;23.40;28.90
4097;DHT22;2062;50.694;7.246;2022-12-07T08:16:55;23.40;28.90
4097;DHT22;2062;50.694;7.246;2022-12-07T08:19:22;23.40;28.90
4097;DHT22;2062;50.694;7.246;2022-12-07T08:21:49;23.40;28.90
4097;DHT22;2062;50.694;7.246;2022-12-07T08:24:16;23.40;28.90
4097;DHT22;2062;50.694;7.246;2022-12-07T08:26:43;23.40;28.90
4097;DHT22;2062;50.694;7.246;2022-12-07T08:29:10;23.40;28.90
4097;DHT22;2062;50.694;7.246;2022-12-07T08:31:37;23.40;28.90
4097;DHT22;2062;50.694;7.246;2022-12-07T08:34:06;23.40;28.90
4097;DHT22;2062;50.694;7.246;2022-12-07T08:36:33;23.40;28.90
4097;DHT22;2062;50.694;7.246;2022-12-07T08:38:59;23.40;28.90
4097;DHT22;2062;50.694;7.246;2022-12-07T08:41:26;23.40;28.90
4097;DHT22;2062;50.694;7.246;2022-12-07T08:43:53;23.40;28.90
4097;DHT22;2062;50.694;7.246;2022-12-07T08:46:23;23.30;28.90
4097;DHT22;2062;50.694;7.246;2022-12-07T08:48:54;23.40;28.90
4097;DHT22;2062;50.694;7.246;2022-12-07T08:51:23;23.30;28.90
4097;DHT22;2062;50.694;7.246;2022-12-07T08:53:51;23.30;28.90
4097;DHT22;2062;50.694;7.246;2022-12-07T08:56:19;23.40;28.90
4097;DHT22;2062;50.694;7.246;2022-12-07T08:58:47;23.30;28.90
4097;DHT22;2062;50.694;7.246;2022-12-07T09:01:14;23.40;28.90
4097;DHT22;2062;50.694;7.246;2022-12-07T09:03:41;23.30;28.90
4097;DHT22;2062;50.694;7.246;2022-12-07T09:06:08;23.30;28.90
4097;DHT22;2062;50.694;7.246;2022-12-07T09:08:39;23.40;28.80
4097;DHT22;2062;50.694;7.246;2022-12-07T09:11:08;23.40;28.90
4097;DHT22;2062;50.694;7.246;2022-12-07T09:13:34;23.30;28.80
4097;DHT22;2062;50.694;7.246;2022-12-07T09:16:01;23.30;28.80
4097;DHT22;2062;50.694;7.246;2022-12-07T09:18:28;23.30;28.80
4097;DHT22;2062;50.694;7.246;2022-12-07T09:20:56;23.40;28.80
4097;DHT22;2062;50.694;7.246;2022-12-07T09:23:22;23.30;28.80
4097;DHT22;2062;50.694;7.246;2022-12-07T09:25:50;23.30;28.80
4097;DHT22;2062;50.694;7.246;2022-12-07T09:28:17;23.30;28.80
4097;DHT22;2062;50.694;7.246;2022-12-07T09:30:45;23.30;28.80
4097;DHT22;2062;50.694;7.246;2022-12-07T09:33:12;23.30;28.80
4097;DHT22;2062;50.694;7.246;2022-12-07T09:35:44;23.30;28.80
4097;DHT22;2062;50.694;7.246;2022-12-07T09:38:11;23.40;28.80
4097;DHT22;2062;50.694;7.246;2022-12-07T09:40:39;23.30;28.80
4097;DHT22;2062;50.694;7.246;2022-12-07T09:43:12;23.30;28.80
4097;DHT22;2062;50.694;7.246;2022-12-07T09:45:39;23.30;29.40
4097;DHT22;2062;50.694;7.246;2022-12-07T09:48:15;23.30;28.80
4097;DHT22;2062;50.694;7.246;2022-12-07T09:50:43;23.30;28.80
4097;DHT22;2062;50.694;7.246;2022-12-07T09:53:14;23.30;28.80
4097;DHT22;2062;50.694;7.246;2022-12-07T09:55:43;23.30;28.80
4097;DHT22;2062;50.694;7.246;2022-12-07T09:58:17;23.40;28.80
4097;DHT22;2062;50.694;7.246;2022-12-07T10:00:45;23.30;28.80
4097;DHT22;2062;50.694;7.246;2022-12-07T10:03:12;23.30;28.80
4097;DHT22;2062;50.694;7.246;2022-12-07T10:05:42;23.30;28.80
4097;DHT22;2062;50.694;7.246;2022-12-07T10:08:11;23.30;28.80
4097;DHT22;2062;50.694;7.246;2022-12-07T10:10:39;23.30;29.40
4097;DHT22;2062;50.694;7.246;2022-12-07T10:13:07;23.30;28.80
4097;DHT22;2062;50.694;7.246;2022-12-07T10:15:46;23.30;28.80
4097;DHT22;2062;50.694;7.246;2022-12-07T10:18:31;23.30;28.70
4097;DHT22;2062;50.694;7.246;2022-12-07T10:21:10;23.30;28.80
4097;DHT22;2062;50.694;7.246;2022-12-07T10:23:39;23.30;28.80
4097;DHT22;2062;50.694;7.246;2022-12-07T10:26:28;23.30;28.80
4097;DHT22;2062;50.694;7.246;2022-12-07T10:28:58;23.30;28.70
4097;DHT22;2062;50.694;7.246;2022-12-07T10:31:26;23.30;28.70
4097;DHT22;2062;50.694;7.246;2022-12-07T10:33:54;23.30;28.70
4097;DHT22;2062;50.694;7.246;2022-12-07T10:36:24;23.30;28.70
4097;DHT22;2062;50.694;7.246;2022-12-07T10:38:53;23.30;28.80
4097;DHT22;2062;50.694;7.246;2022-12-07T10:41:24;23.30;28.70
4097;DHT22;2062;50.694;7.246;2022-12-07T10:43:53;23.30;28.80
4097;DHT22;2062;50.694;7.246;2022-12-07T10:50:01;23.30;28.70
4097;DHT22;2062;50.694;7.246;2022-12-07T10:52:51;23.30;28.70
4097;DHT22;2062;50.694;7.246;2022-12-07T10:55:22;23.30;28.70
4097;DHT22;2062;50.694;7.246;2022-12-07T10:58:09;23.30;28.70
4097;DHT22;2062;50.694;7.246;2022-12-07T11:00:43;23.30;28.80
4097;DHT22;2062;50.694;7.246;2022-12-07T11:03:33;23.30;28.70
4097;DHT22;2062;50.694;7.246;2022-12-07T11:06:14;23.20;28.70
4097;DHT22;2062;50.694;7.246;2022-12-07T11:08:57;23.30;28.70
4097;DHT22;2062;50.694;7.246;2022-12-07T11:11:33;23.30;28.70
4097;DHT22;2062;50.694;7.246;2022-12-07T11:14:05;23.20;28.60
4097;DHT22;2062;50.694;7.246;2022-12-07T11:16:50;23.30;28.70
4097;DHT22;2062;50.694;7.246;2022-12-07T11:19:40;23.30;28.70
4097;DHT22;2062;50.694;7.246;2022-12-07T11:22:17;23.30;28.70
4097;DHT22;2062;50.694;7.246;2022-12-07T11:24:52;23.20;28.60
4097;DHT22;2062;50.694;7.246;2022-12-07T11:27:24;23.30;28.70
4097;DHT22;2062;50.694;7.246;2022-12-07T11:30:10;23.30;28.70
4097;DHT22;2062;50.694;7.246;2022-12-07T11:32:49;23.30;28.80
4097;DHT22;2062;50.694;7.246;2022-12-07T11:35:24;23.30;28.70
4097;DHT22;2062;50.694;7.246;2022-12-07T11:38:01;23.20;28.60
4097;DHT22;2062;50.694;7.246;2022-12-07T11:40:35;23.30;28.70
4097;DHT22;2062;50.694;7.246;2022-12-07T11:43:09;23.20;28.60
4097;DHT22;2062;50.694;7.246;2022-12-07T11:45:42;23.20;28.60
4097;DHT22;2062;50.694;7.246;2022-12-07T11:48:13;23.20;28.70
4097;DHT22;2062;50.694;7.246;2022-12-07T11:50:45;23.20;28.60
4097;DHT22;2062;50.694;7.246;2022-12-07T11:53:19;23.30;28.70
4097;DHT22;2062;50.694;7.246;2022-12-07T11:55:49;23.30;28.70
4097;DHT22;2062;50.694;7.246;2022-12-07T11:58:35;23.30;28.70
4097;DHT22;2062;50.694;7.246;2022-12-07T12:01:12;23.30;28.70
4097;DHT22;2062;50.694;7.246;2022-12-07T12:03:43;23.20;28.60
4097;DHT22;2062;50.694;7.246;2022-12-07T12:06:12;23.20;28.60
4097;DHT22;2062;50.694;7.246;2022-12-07T12:08:43;23.30;28.60
4097;DHT22;2062;50.694;7.246;2022-12-07T12:11:21;23.20;28.60
4097;DHT22;2062;50.694;7.246;2022-12-07T12:14:04;23.30;28.70
4097;DHT22;2062;50.694;7.246;2022-12-07T12:16:54;23.30;28.70
4097;DHT22;2062;50.694;7.246;2022-12-07T12:19:32;23.30;28.60
4097;DHT22;2062;50.694;7.246;2022-12-07T12:22:06;23.20;28.50
4097;DHT22;2062;50.694;7.246;2022-12-07T12:24:39;23.30;28.60
4097;DHT22;2062;50.694;7.246;2022-12-07T12:27:09;23.30;28.60
4097;DHT22;2062;50.694;7.246;2022-12-07T12:29:42;23.20;28.50
4097;DHT22;2062;50.694;7.246;2022-12-07T12:32:18;23.30;28.60
4097;DHT22;2062;50.694;7.246;2022-12-07T12:35:02;23.30;28.60
4097;DHT22;2062;50.694;7.246;2022-12-07T12:37:43;23.20;28.50
4097;DHT22;2062;50.694;7.246;2022-12-07T12:40:39;23.30;28.60
4097;DHT22;2062;50.694;7.246;2022-12-07T12:43:41;23.20;28.50
4097;DHT22;2062;50.694;7.246;2022-12-07T12:46:36;23.20;28.50
4097;DHT22;2062;50.694;7.246;2022-12-07T12:52:50;23.30;28.60
4097;DHT22;2062;50.694;7.246;2022-12-07T12:56:00;23.30;28.60
4097;DHT22;2062;50.694;7.246;2022-12-07T12:58:40;23.20;28.50
4097;DHT22;2062;50.694;7.246;2022-12-07T13:04:49;23.20;28.50
4097;DHT22;2062;50.694;7.246;2022-12-07T13:10:36;23.30;28.60
4097;DHT22;2062;50.694;7.246;2022-12-07T13:13:29;23.20;28.50
4097;DHT22;2062;50.694;7.246;2022-12-07T13:16:36;23.20;28.50
4097;DHT22;2062;50.694;7.246;2022-12-07T13:22:51;23.20;28.50
4097;DHT22;2062;50.694;7.246;2022-12-07T13:25:23;23.20;28.50
4097;DHT22;2062;50.694;7.246;2022-12-07T13:27:57;23.20;28.50
4097;DHT22;2062;50.694;7.246;2022-12-07T13:30:25;23.20;28.50
4097;DHT22;2062;50.694;7.246;2022-12-07T13:32:55;23.30;28.50
4097;DHT22;2062;50.694;7.246;2022-12-07T13:35:32;23.20;28.50
4097;DHT22;2062;50.694;7.246;2022-12-07T13:38:02;23.20;28.50
4097;DHT22;2062;50.694;7.246;2022-12-07T13:40:29;23.20;28.50
4097;DHT22;2062;50.694;7.246;2022-12-07T13:43:00;23.20;28.50
4097;DHT22;2062;50.694;7.246;2022-12-07T13:45:29;23.20;28.50
4097;DHT22;2062;50.694;7.246;2022-12-07T13:48:20;23.20;28.50
4097;DHT22;2062;50.694;7.246;2022-12-07T13:50:54;23.20;29.10
4097;DHT22;2062;50.694;7.246;2022-12-07T13:53:22;23.20;28.50
4097;DHT22;2062;50.694;7.246;2022-12-07T13:55:49;23.20;28.50
4097;DHT22;2062;50.694;7.246;2022-12-07T13:58:16;23.20;28.50
4097;DHT22;2062;50.694;7.246;2022-12-07T14:00:43;23.20;28.50
4097;DHT22;2062;50.694;7.246;2022-12-07T14:03:29;23.20;28.50
4097;DHT22;2062;50.694;7.246;2022-12-07T14:06:23;23.30;28.60
4097;DHT22;2062;50.694;7.246;2022-12-07T14:09:14;23.20;28.50
4097;DHT22;2062;50.694;7.246;2022-12-07T14:11:43;23.20;28.60
4097;DHT22;2062;50.694;7.246;2022-12-07T14:14:15;23.20;28.60
4097;DHT22;2062;50.694;7.246;2022-12-07T14:16:43;23.20;28.60
4097;DHT22;2062;50.694;7.246;2022-12-07T14:19:40;23.20;28.60
4097;DHT22;2062;50.694;7.246;2022-12-07T14:22:20;23.20;28.60
4097;DHT22;2062;50.694;7.246;2022-12-07T14:24:47;23.20;28.60
4097;DHT22;2062;50.694;7.246;2022-12-07T14:27:18;23.20;28.60
4097;DHT22;2062;50.694;7.246;2022-12-07T14:29:45;23.20;28.60
4097;DHT22;2062;50.694;7.246;2022-12-07T14:32:24;23.20;28.60
4097;DHT22;2062;50.694;7.246;2022-12-07T14:34:59;23.20;28.60
4097;DHT22;2062;50.694;7.246;2022-12-07T14:37:29;23.20;28.60
4097;DHT22;2062;50.694;7.246;2022-12-07T14:39:56;23.20;28.60
4097;DHT22;2062;50.694;7.246;2022-12-07T14:42:26;23.20;28.70
4097;DHT22;2062;50.694;7.246;2022-12-07T14:44:54;23.20;28.60
4097;DHT22;2062;50.694;7.246;2022-12-07T14:47:20;23.20;28.60
4097;DHT22;2062;50.694;7.246;2022-12-07T14:49:47;23.20;28.70
4097;DHT22;2062;50.694;7.246;2022-12-07T14:52:16;23.20;28.70
4097;DHT22;2062;50.694;7.246;2022-12-07T14:54:45;23.20;28.70
4097;DHT22;2062;50.694;7.246;2022-12-07T14:57:12;23.20;28.70
4097;DHT22;2062;50.694;7.246;2022-12-07T14:59:40;23.20;28.70
4097;DHT22;2062;50.694;7.246;2022-12-07T15:02:08;23.20;28.70
4097;DHT22;2062;50.694;7.246;2022-12-07T15:04:35;23.30;28.70
4097;DHT22;2062;50.694;7.246;2022-12-07T15:07:04;23.30;28.80
4097;DHT22;2062;50.694;7.246;2022-12-07T15:09:31;23.30;28.80
4097;DHT22;2062;50.694;7.246;2022-12-07T15:11:59;23.20;28.70
4097;DHT22;2062;50.694;7.246;2022-12-07T15:14:26;23.20;28.70
4097;DHT22;2062;50.694;7.246;2022-12-07T15:16:52;23.20;28.70
4097;DHT22;2062;50.694;7.246;2022-12-07T15:19:20;23.20;28.70
4097;DHT22;2062;50.694;7.246;2022-12-07T15:21:51;23.30;28.70
4097;DHT22;2062;50.694;7.246;2022-12-07T15:24:18;23.20;28.70
4097;DHT22;2062;50.694;7.246;2022-12-07T15:26:45;23.20;28.70
4097;DHT22;2062;50.694;7.246;2022-12-07T15:29:14;23.20;28.70
4097;DHT22;2062;50.694;7.246;2022-12-07T15:31:42;23.20;28.70
4097;DHT22;2062;50.694;7.246;2022-12-07T15:34:09;23.30;28.80
4097;DHT22;2062;50.694;7.246;2022-12-07T15:36:36;23.20;28.70
4097;DHT22;2062;50.694;7.246;2022-12-07T15:39:03;23.20;28.80
4097;DHT22;2062;50.694;7.246;2022-12-07T15:41:30;23.20;28.80
4097;DHT22;2062;50.694;7.246;2022-12-07T15:43:57;23.20;28.80
4097;DHT22;2062;50.694;7.246;2022-12-07T15:46:43;23.30;28.90
4097;DHT22;2062;50.694;7.246;2022-12-07T15:49:15;23.20;28.80
4097;DHT22;2062;50.694;7.246;2022-12-07T15:51:43;23.20;28.80
4097;DHT22;2062;50.694;7.246;2022-12-07T15:54:13;23.20;28.80
4097;DHT22;2062;50.694;7.246;2022-12-07T15:56:42;23.20;28.80
4097;DHT22;2062;50.694;7.246;2022-12-07T15:59:08;23.20;28.70
4097;DHT22;2062;50.694;7.246;2022-12-07T16:01:35;23.20;27.50
4097;DHT22;2062;50.694;7.246;2022-12-07T16:04:04;23.20;27.50
4097;DHT22;2062;50.694;7.246;2022-12-07T16:06:30;23.20;27.60
4097;DHT22;2062;50.694;7.246;2022-12-07T16:08:57;23.20;27.80
4097;DHT22;2062;50.694;7.246;2022-12-07T16:11:24;23.20;27.90
4097;DHT22;2062;50.694;7.246;2022-12-07T16:13:51;23.20;27.90
4097;DHT22;2062;50.694;7.246;2022-12-07T16:16:19;23.20;27.90
4097;DHT22;2062;50.694;7.246;2022-12-07T16:18:48;23.20;27.90
4097;DHT22;2062;50.694;7.246;2022-12-07T16:21:17;23.20;28.00
4097;DHT22;2062;50.694;7.246;2022-12-07T16:23:44;23.20;27.90
4097;DHT22;2062;50.694;7.246;2022-12-07T16:26:12;23.20;27.90
4097;DHT22;2062;50.694;7.246;2022-12-07T16:28:40;23.20;27.90
4097;DHT22;2062;50.694;7.246;2022-12-07T16:31:08;23.20;27.90
4097;DHT22;2062;50.694;7.246;2022-12-07T16:33:37;23.10;28.00
4097;DHT22;2062;50.694;7.246;2022-12-07T16:36:05;23.20;28.00
4097;DHT22;2062;50.694;7.246;2022-12-07T16:38:35;23.10;28.60
4097;DHT22;2062;50.694;7.246;2022-12-07T16:41:02;23.10;28.00
4097;DHT22;2062;50.694;7.246;2022-12-07T16:43:28;23.20;28.20